Time;durP1;ratioP1;P1;durP2;ratioP2;P2;SDS_P1;SDS_P2;PMS_P1;PMS_P2;Temp;Humidity;BMP_temperature;BMP_pressure;BME280_temperature;BME280_humidity;BME280_pressure;Samples;Min_cycle;Max_cycle;Signal;HPM_P1;HPM_P2
2022/11/23 00:01:20;;;;;;;7.60;6.63;;;;;;;;;;5082619;28;20853;-82
2022/11/23 00:03:47;;;;;;;10.17;5.60;;;;;;;;;;5082297;28;20510;-81
2022/11/23 00:06:14;;;;;;;11.07;6.57;;;;;;;;;;5081208;28;20481;-82
2022/11/23 00:08:43;;;;;;;7.87;5.90;;;;;;;;;;5080248;28;20478;-82
2022/11/23 00:11:10;;;;;;;7.67;5.80;;;;;;;;;;5083573;28;20478;-82
2022/11/23 00:13:38;;;;;;;7.60;5.60;;;;;;;;;;5085360;28;20487;-81
2022/11/23 00:16:05;;;;;;;9.33;6.10;;;;;;;;;;5076809;28;20533;-82
2022/11/23 00:18:34;;;;;;;8.37;5.53;;;;;;;;;;5078891;28;20488;-83
2022/11/23 00:21:05;;;;;;;8.53;5.37;;;;;;;;;;5079501;28;20477;-82
2022/11/23 00:23:31;;;;;;;9.20;6.00;;;;;;;;;;5080320;28;20455;-81
2022/11/23 00:25:58;;;;;;;7.77;5.57;;;;;;;;;;5088774;28;20478;-82
2022/11/23 00:28:24;;;;;;;7.27;6.20;;;;;;;;;;5085076;28;20475;-81
2022/11/23 00:30:51;;;;;;;9.93;5.60;;;;;;;;;;5080434;28;20466;-82
2022/11/23 00:33:17;;;;;;;10.70;5.50;;;;;;;;;;5082563;28;20481;-82
2022/11/23 00:35:45;;;;;;;7.40;5.87;;;;;;;;;;5088645;28;20469;-82
2022/11/23 00:38:12;;;;;;;10.13;6.10;;;;;;;;;;5086893;28;20473;-82
2022/11/23 00:40:39;;;;;;;12.07;6.13;;;;;;;;;;5086877;28;20466;-81
2022/11/23 00:43:05;;;;;;;8.03;5.50;;;;;;;;;;5087566;28;20439;-82
2022/11/23 00:45:32;;;;;;;10.13;5.63;;;;;;;;;;5083914;28;20458;-82
2022/11/23 00:47:58;;;;;;;9.27;6.30;;;;;;;;;;5089682;28;20473;-82
2022/11/23 00:50:26;;;;;;;12.97;5.63;;;;;;;;;;5086237;28;20457;-82
2022/11/23 00:52:53;;;;;;;10.43;6.37;;;;;;;;;;5085152;28;20442;-82
2022/11/23 00:55:20;;;;;;;11.33;6.23;;;;;;;;;;5086189;28;20485;-81
2022/11/23 00:57:46;;;;;;;12.60;5.93;;;;;;;;;;5088026;28;20466;-82
2022/11/23 01:00:13;;;;;;;11.77;6.50;;;;;;;;;;5083596;28;20446;-82
2022/11/23 01:02:39;;;;;;;8.70;6.67;;;;;;;;;;5089372;28;20962;-82
2022/11/23 01:05:06;;;;;;;8.17;6.17;;;;;;;;;;5085840;28;20478;-82
2022/11/23 01:07:32;;;;;;;15.90;7.30;;;;;;;;;;5078211;28;20481;-82
2022/11/23 01:10:00;;;;;;;11.83;6.67;;;;;;;;;;5082290;28;20439;-82
2022/11/23 01:12:28;;;;;;;11.80;6.23;;;;;;;;;;5084907;28;20478;-83
2022/11/23 01:14:55;;;;;;;8.73;5.40;;;;;;;;;;5087095;28;20500;-82
2022/11/23 01:17:21;;;;;;;9.93;5.63;;;;;;;;;;5080637;28;20493;-82
2022/11/23 01:19:48;;;;;;;13.10;6.40;;;;;;;;;;5084073;28;20459;-82
2022/11/23 01:22:14;;;;;;;8.40;5.40;;;;;;;;;;5073936;28;20471;-82
2022/11/23 01:24:41;;;;;;;8.50;5.57;;;;;;;;;;5073477;28;20462;-82
2022/11/23 01:27:09;;;;;;;9.40;6.43;;;;;;;;;;5079938;28;20478;-82
2022/11/23 01:29:35;;;;;;;10.50;6.33;;;;;;;;;;5088342;28;20886;-82
2022/11/23 01:32:02;;;;;;;11.67;8.03;;;;;;;;;;5076593;28;20475;-82
2022/11/23 01:34:28;;;;;;;13.50;6.53;;;;;;;;;;5084133;28;20488;-82
2022/11/23 01:36:55;;;;;;;8.97;6.00;;;;;;;;;;5064398;28;20497;-82
2022/11/23 01:39:21;;;;;;;7.30;6.20;;;;;;;;;;5084069;28;20482;-82
2022/11/23 01:41:47;;;;;;;18.30;6.50;;;;;;;;;;5085899;28;20471;-82
2022/11/23 01:44:23;;;;;;;7.10;5.50;;;;;;;;;;5086965;28;20450;-82
2022/11/23 01:46:53;;;;;;;6.50;5.20;;;;;;;;;;5081011;28;20469;-81
2022/11/23 01:49:20;;;;;;;8.13;5.97;;;;;;;;;;5086046;28;20443;-82
2022/11/23 01:51:49;;;;;;;15.40;6.90;;;;;;;;;;5080705;28;20479;-82
2022/11/23 01:54:18;;;;;;;7.63;5.20;;;;;;;;;;5079254;28;20476;-84
2022/11/23 01:56:46;;;;;;;7.43;5.97;;;;;;;;;;5068114;28;20476;-82
2022/11/23 01:59:15;;;;;;;9.33;5.07;;;;;;;;;;5074968;28;20454;-82
2022/11/23 02:01:43;;;;;;;6.70;4.97;;;;;;;;;;5079812;28;20480;-82
2022/11/23 02:04:11;;;;;;;9.23;5.40;;;;;;;;;;5079472;28;20439;-82
2022/11/23 02:06:39;;;;;;;10.13;6.17;;;;;;;;;;5080959;28;20477;-81
2022/11/23 02:09:06;;;;;;;13.60;5.97;;;;;;;;;;5085794;28;20473;-82
2022/11/23 02:11:33;;;;;;;6.17;5.57;;;;;;;;;;5082210;28;20478;-81
2022/11/23 02:13:59;;;;;;;14.37;5.40;;;;;;;;;;5080774;28;20475;-82
2022/11/23 02:16:26;;;;;;;9.63;5.83;;;;;;;;;;5077495;28;20475;-82
2022/11/23 02:18:54;;;;;;;8.57;4.53;;;;;;;;;;5087399;28;20478;-82
2022/11/23 02:21:20;;;;;;;8.20;5.37;;;;;;;;;;5083917;28;20473;-82
2022/11/23 02:23:51;;;;;;;9.23;5.30;;;;;;;;;;5081477;28;20447;-81
2022/11/23 02:26:21;;;;;;;9.77;5.83;;;;;;;;;;5084270;28;20485;-82
2022/11/23 02:28:52;;;;;;;9.43;6.20;;;;;;;;;;5084830;28;20976;-82
2022/11/23 02:31:18;;;;;;;7.53;5.37;;;;;;;;;;5079884;28;20470;-82
2022/11/23 02:33:45;;;;;;;6.90;4.27;;;;;;;;;;5086850;28;20446;-82
2022/11/23 02:36:25;;;;;;;7.67;4.87;;;;;;;;;;5082938;28;20462;-81
2022/11/23 02:38:53;;;;;;;9.97;5.27;;;;;;;;;;5084238;28;20830;-82
2022/11/23 02:41:21;;;;;;;6.37;5.60;;;;;;;;;;5085716;28;20462;-81
2022/11/23 02:43:50;;;;;;;10.93;5.40;;;;;;;;;;5083745;28;20449;-82
2022/11/23 02:46:17;;;;;;;5.40;4.90;;;;;;;;;;5085291;28;20466;-82
2022/11/23 02:48:44;;;;;;;6.37;4.30;;;;;;;;;;5085462;28;20478;-83
2022/11/23 02:51:11;;;;;;;13.77;5.67;;;;;;;;;;5067267;28;20482;-81
2022/11/23 02:53:38;;;;;;;8.70;5.07;;;;;;;;;;5083426;28;20438;-82
2022/11/23 02:56:05;;;;;;;8.70;4.77;;;;;;;;;;5084466;28;20470;-81
2022/11/23 02:58:32;;;;;;;8.67;5.47;;;;;;;;;;5084496;28;20470;-82
2022/11/23 03:01:00;;;;;;;7.37;5.23;;;;;;;;;;5083359;28;20470;-82
2022/11/23 03:03:27;;;;;;;9.23;5.00;;;;;;;;;;5065439;28;20466;-82
2022/11/23 03:05:53;;;;;;;7.90;5.67;;;;;;;;;;5080102;28;20493;-82
2022/11/23 03:08:20;;;;;;;7.80;5.10;;;;;;;;;;5083282;28;20485;-82
2022/11/23 03:10:47;;;;;;;7.57;5.23;;;;;;;;;;5081199;28;21091;-82
2022/11/23 03:13:14;;;;;;;5.67;5.17;;;;;;;;;;5059376;28;20478;-81
2022/11/23 03:15:44;;;;;;;9.50;4.20;;;;;;;;;;5078972;28;20493;-82
2022/11/23 03:18:10;;;;;;;13.20;5.33;;;;;;;;;;5081854;28;20480;-82
2022/11/23 03:20:37;;;;;;;7.40;4.77;;;;;;;;;;5081281;28;20471;-82
2022/11/23 03:23:04;;;;;;;7.57;4.40;;;;;;;;;;5083117;28;20458;-82
2022/11/23 03:25:30;;;;;;;7.67;4.93;;;;;;;;;;5079298;28;20471;-82
2022/11/23 03:27:57;;;;;;;7.23;4.77;;;;;;;;;;5083457;28;20479;-82
2022/11/23 03:30:23;;;;;;;6.13;4.70;;;;;;;;;;5083957;28;20461;-81
2022/11/23 03:32:51;;;;;;;6.97;5.37;;;;;;;;;;5084358;28;20465;-81
2022/11/23 03:35:17;;;;;;;7.43;4.70;;;;;;;;;;5062922;28;20474;-84
2022/11/23 03:37:44;;;;;;;11.77;5.00;;;;;;;;;;5082071;28;20475;-82
2022/11/23 03:40:11;;;;;;;7.33;4.40;;;;;;;;;;5084603;28;20448;-82
2022/11/23 03:42:39;;;;;;;6.00;4.87;;;;;;;;;;5082565;28;20443;-82
2022/11/23 03:45:06;;;;;;;5.37;4.60;;;;;;;;;;5084628;28;20449;-82
2022/11/23 03:47:32;;;;;;;10.30;5.23;;;;;;;;;;5079699;28;20504;-82
2022/11/23 03:50:00;;;;;;;6.77;4.67;;;;;;;;;;5083585;28;20460;-82
2022/11/23 03:52:29;;;;;;;7.93;5.17;;;;;;;;;;5080991;28;20470;-82
2022/11/23 03:54:55;;;;;;;9.10;5.70;;;;;;;;;;5081302;28;20482;-82
2022/11/23 03:57:22;;;;;;;8.67;5.23;;;;;;;;;;5083175;28;20465;-82
2022/11/23 03:59:48;;;;;;;6.23;5.07;;;;;;;;;;5084011;28;20451;-82
2022/11/23 04:02:14;;;;;;;6.70;5.77;;;;;;;;;;5081953;28;20478;-82
2022/11/23 04:04:41;;;;;;;5.73;5.20;;;;;;;;;;5082868;28;20446;-82
2022/11/23 04:07:08;;;;;;;5.87;4.53;;;;;;;;;;5085202;28;20473;-82
2022/11/23 04:09:35;;;;;;;6.13;4.90;;;;;;;;;;5086742;28;20465;-82
2022/11/23 04:12:01;;;;;;;7.10;4.67;;;;;;;;;;5080311;28;20485;-82
2022/11/23 04:14:27;;;;;;;5.33;4.17;;;;;;;;;;5085935;28;20482;-82
2022/11/23 04:16:54;;;;;;;7.03;5.37;;;;;;;;;;5084370;28;21019;-82
2022/11/23 04:19:22;;;;;;;6.53;5.23;;;;;;;;;;5086181;28;20445;-82
2022/11/23 04:21:48;;;;;;;6.17;5.30;;;;;;;;;;5083385;28;20509;-82
2022/11/23 04:24:16;;;;;;;7.43;4.83;;;;;;;;;;5087859;28;20837;-82
2022/11/23 04:26:42;;;;;;;6.87;4.70;;;;;;;;;;5074749;28;20493;-82
2022/11/23 04:29:09;;;;;;;8.50;4.57;;;;;;;;;;5087271;28;20458;-82
2022/11/23 04:31:35;;;;;;;6.67;5.03;;;;;;;;;;5063112;28;20474;-81
2022/11/23 04:34:02;;;;;;;7.60;5.03;;;;;;;;;;5086005;28;20445;-82
2022/11/23 04:36:28;;;;;;;6.83;4.83;;;;;;;;;;5077653;28;20494;-82
2022/11/23 04:38:54;;;;;;;6.07;5.47;;;;;;;;;;5080738;28;20482;-83
2022/11/23 04:41:22;;;;;;;10.27;4.83;;;;;;;;;;5075297;28;20482;-82
2022/11/23 04:43:50;;;;;;;8.27;5.93;;;;;;;;;;5070249;28;20496;-82
2022/11/23 04:46:17;;;;;;;6.77;4.60;;;;;;;;;;5074708;28;20471;-82
2022/11/23 04:48:43;;;;;;;6.73;3.93;;;;;;;;;;5081037;28;20878;-83
2022/11/23 04:51:10;;;;;;;4.87;3.90;;;;;;;;;;5079694;28;20467;-82
2022/11/23 04:53:37;;;;;;;10.60;4.97;;;;;;;;;;5082537;28;20458;-82
2022/11/23 04:56:03;;;;;;;10.00;4.53;;;;;;;;;;5083781;28;20463;-83
2022/11/23 04:58:31;;;;;;;6.73;4.27;;;;;;;;;;5079958;28;20486;-82
2022/11/23 05:00:59;;;;;;;6.90;4.60;;;;;;;;;;5083019;28;20478;-82
2022/11/23 05:03:25;;;;;;;8.03;4.17;;;;;;;;;;5084682;28;20447;-82
2022/11/23 05:05:52;;;;;;;7.83;3.93;;;;;;;;;;5085311;28;20471;-82
2022/11/23 05:08:20;;;;;;;6.63;4.23;;;;;;;;;;5076356;28;20474;-82
2022/11/23 05:10:46;;;;;;;7.80;4.00;;;;;;;;;;5084328;28;21010;-82
2022/11/23 05:13:12;;;;;;;7.43;4.33;;;;;;;;;;5077301;28;20469;-82
2022/11/23 05:15:41;;;;;;;5.47;3.50;;;;;;;;;;5084081;28;20466;-81
2022/11/23 05:18:07;;;;;;;9.73;4.03;;;;;;;;;;5087440;28;20481;-82
2022/11/23 05:20:34;;;;;;;9.47;4.77;;;;;;;;;;5081828;28;20471;-82
2022/11/23 05:23:00;;;;;;;5.73;3.67;;;;;;;;;;5084962;28;20484;-82
2022/11/23 05:25:27;;;;;;;5.50;4.73;;;;;;;;;;5079998;28;20468;-82
2022/11/23 05:27:53;;;;;;;7.03;4.40;;;;;;;;;;5080714;28;20479;-82
2022/11/23 05:30:20;;;;;;;9.30;4.60;;;;;;;;;;5080590;28;20453;-83
2022/11/23 05:32:48;;;;;;;7.23;4.43;;;;;;;;;;5071715;28;20459;-82
2022/11/23 05:35:14;;;;;;;5.43;4.40;;;;;;;;;;5081292;28;20494;-81
2022/11/23 05:37:41;;;;;;;4.67;3.50;;;;;;;;;;5086721;28;20483;-82
2022/11/23 05:40:11;;;;;;;4.57;4.00;;;;;;;;;;5081537;28;20461;-82
2022/11/23 05:42:37;;;;;;;8.13;4.60;;;;;;;;;;5083942;28;20460;-82
2022/11/23 05:45:04;;;;;;;7.93;4.40;;;;;;;;;;5082342;28;20457;-82
2022/11/23 05:47:31;;;;;;;11.07;4.10;;;;;;;;;;5083938;28;20483;-82
2022/11/23 05:49:58;;;;;;;6.93;4.63;;;;;;;;;;5081986;28;20446;-82
2022/11/23 05:52:27;;;;;;;5.57;3.80;;;;;;;;;;5080260;28;20474;-82
2022/11/23 05:54:53;;;;;;;5.90;4.10;;;;;;;;;;5080139;28;20470;-81
2022/11/23 05:57:21;;;;;;;8.63;4.60;;;;;;;;;;5081347;28;20502;-82
2022/11/23 05:59:47;;;;;;;15.33;5.37;;;;;;;;;;5078654;28;20469;-81
2022/11/23 06:02:14;;;;;;;8.23;4.60;;;;;;;;;;5082329;28;20475;-81
2022/11/23 06:04:41;;;;;;;9.30;4.93;;;;;;;;;;5079602;28;20461;-82
2022/11/23 06:07:10;;;;;;;9.97;6.17;;;;;;;;;;5081537;28;20486;-82
2022/11/23 06:09:37;;;;;;;6.40;4.97;;;;;;;;;;5081253;28;20463;-81
2022/11/23 06:12:05;;;;;;;10.47;5.17;;;;;;;;;;5083517;28;20546;-82
2022/11/23 06:14:31;;;;;;;10.00;5.80;;;;;;;;;;5078739;28;20826;-82
2022/11/23 06:16:57;;;;;;;10.07;5.70;;;;;;;;;;5084931;28;20481;-81
2022/11/23 06:19:24;;;;;;;10.17;5.73;;;;;;;;;;5083227;28;20455;-82
2022/11/23 06:21:50;;;;;;;11.40;5.43;;;;;;;;;;5081813;28;20482;-81
2022/11/23 06:24:18;;;;;;;11.40;6.30;;;;;;;;;;5085255;28;20446;-82
2022/11/23 06:26:45;;;;;;;10.67;6.40;;;;;;;;;;5085123;28;20477;-83
2022/11/23 06:29:11;;;;;;;12.10;7.10;;;;;;;;;;5081907;28;20454;-82
2022/11/23 06:31:38;;;;;;;11.83;7.03;;;;;;;;;;5072807;28;20470;-81
2022/11/23 06:34:04;;;;;;;10.87;6.30;;;;;;;;;;5080290;28;20457;-81
2022/11/23 06:36:31;;;;;;;11.87;5.60;;;;;;;;;;5082792;28;20470;-80
2022/11/23 06:38:57;;;;;;;8.97;5.47;;;;;;;;;;5080175;28;20477;-81
2022/11/23 06:41:25;;;;;;;8.17;6.80;;;;;;;;;;5083720;28;20475;-80
2022/11/23 06:43:52;;;;;;;9.20;7.03;;;;;;;;;;5082920;28;20458;-81
2022/11/23 06:46:18;;;;;;;7.10;6.03;;;;;;;;;;5077931;28;20474;-81
2022/11/23 06:48:45;;;;;;;14.03;6.13;;;;;;;;;;5066670;28;20552;-82
2022/11/23 06:51:11;;;;;;;10.20;5.80;;;;;;;;;;5080819;28;20483;-81
2022/11/23 06:53:37;;;;;;;8.90;6.17;;;;;;;;;;5081082;28;20465;-81
2022/11/23 06:56:04;;;;;;;13.00;5.83;;;;;;;;;;5082472;28;20477;-81
2022/11/23 06:58:32;;;;;;;14.80;6.23;;;;;;;;;;5079414;28;20489;-80
2022/11/23 07:01:00;;;;;;;19.50;6.93;;;;;;;;;;5079643;28;20493;-80
2022/11/23 07:03:27;;;;;;;10.20;5.87;;;;;;;;;;5078654;28;20469;-81
2022/11/23 07:05:54;;;;;;;13.20;6.50;;;;;;;;;;5078856;28;20466;-84
2022/11/23 07:08:20;;;;;;;12.43;6.90;;;;;;;;;;5078421;28;20477;-81
2022/11/23 07:10:47;;;;;;;10.10;6.23;;;;;;;;;;5075808;28;20471;-82
2022/11/23 07:13:15;;;;;;;12.93;6.60;;;;;;;;;;5082362;28;20455;-82
2022/11/23 07:15:43;;;;;;;10.13;7.13;;;;;;;;;;5077011;28;20478;-82
2022/11/23 07:18:10;;;;;;;14.43;6.33;;;;;;;;;;5081218;28;20488;-82
2022/11/23 07:20:39;;;;;;;14.10;5.77;;;;;;;;;;5076674;28;20481;-81
2022/11/23 07:23:07;;;;;;;10.83;6.17;;;;;;;;;;5086671;28;20975;-83
2022/11/23 07:25:35;;;;;;;6.30;5.40;;;;;;;;;;5079549;28;21012;-81
2022/11/23 07:28:01;;;;;;;10.90;5.90;;;;;;;;;;5085021;28;20477;-81
2022/11/23 07:30:29;;;;;;;15.00;6.97;;;;;;;;;;5078658;28;20473;-82
2022/11/23 07:32:59;;;;;;;14.23;5.80;;;;;;;;;;5082165;28;20483;-81
2022/11/23 07:35:25;;;;;;;7.80;5.47;;;;;;;;;;5081643;28;20842;-82
2022/11/23 07:37:52;;;;;;;8.80;6.03;;;;;;;;;;5077451;28;20481;-81
2022/11/23 07:40:19;;;;;;;12.07;5.47;;;;;;;;;;5056532;28;20480;-81
2022/11/23 07:42:45;;;;;;;8.53;5.70;;;;;;;;;;5077167;28;20466;-82
2022/11/23 07:45:12;;;;;;;11.30;7.30;;;;;;;;;;5081461;28;20955;-82
2022/11/23 07:47:39;;;;;;;13.57;5.90;;;;;;;;;;5080082;28;20478;-81
2022/11/23 07:50:10;;;;;;;7.17;4.80;;;;;;;;;;5076432;28;20457;-81
2022/11/23 07:52:38;;;;;;;9.33;5.60;;;;;;;;;;5080595;28;20454;-83
2022/11/23 07:55:05;;;;;;;9.70;5.10;;;;;;;;;;5079570;28;20836;-82
2022/11/23 07:57:32;;;;;;;8.33;4.53;;;;;;;;;;5083400;28;20494;-83
2022/11/23 07:59:58;;;;;;;11.70;5.70;;;;;;;;;;5083251;28;20462;-83
2022/11/23 08:02:24;;;;;;;5.80;5.10;;;;;;;;;;5076423;28;20473;-82
2022/11/23 08:04:51;;;;;;;9.03;5.03;;;;;;;;;;5078279;28;20450;-81
2022/11/23 08:07:19;;;;;;;7.83;4.80;;;;;;;;;;5074521;28;20478;-82
2022/11/23 08:09:45;;;;;;;13.70;4.40;;;;;;;;;;5077690;28;20974;-83
2022/11/23 08:12:12;;;;;;;4.63;3.90;;;;;;;;;;5082460;28;20545;-81
2022/11/23 08:14:38;;;;;;;8.50;4.83;;;;;;;;;;5078360;28;20467;-80
2022/11/23 08:17:05;;;;;;;7.03;4.67;;;;;;;;;;5063154;28;20474;-80
2022/11/23 08:19:35;;;;;;;9.30;4.80;;;;;;;;;;5070953;28;20473;-80
2022/11/23 08:22:01;;;;;;;11.20;4.13;;;;;;;;;;5081583;28;20496;-81
2022/11/23 08:24:29;;;;;;;6.43;4.13;;;;;;;;;;5081508;28;20450;-80
2022/11/23 08:26:56;;;;;;;6.57;4.50;;;;;;;;;;5079797;28;20471;-80
2022/11/23 08:29:23;;;;;;;8.17;4.73;;;;;;;;;;5071536;28;20461;-80
2022/11/23 08:31:49;;;;;;;6.97;4.27;;;;;;;;;;5067913;28;20474;-80
2022/11/23 08:34:17;;;;;;;11.90;4.53;;;;;;;;;;5081429;28;20442;-80
2022/11/23 08:36:44;;;;;;;10.63;4.47;;;;;;;;;;5080896;28;20470;-80
2022/11/23 08:39:13;;;;;;;8.70;5.30;;;;;;;;;;5078361;28;20507;-80
2022/11/23 08:41:40;;;;;;;10.20;4.77;;;;;;;;;;5082678;28;20498;-80
2022/11/23 08:44:08;;;;;;;5.80;3.83;;;;;;;;;;5081661;28;20537;-81
2022/11/23 08:46:36;;;;;;;5.97;4.57;;;;;;;;;;5071858;28;20539;-80
2022/11/23 08:49:02;;;;;;;9.37;4.73;;;;;;;;;;5073608;28;20855;-81
2022/11/23 08:51:30;;;;;;;6.43;3.83;;;;;;;;;;5081495;28;20470;-80
2022/11/23 08:53:56;;;;;;;7.50;4.33;;;;;;;;;;5080506;28;20451;-81
2022/11/23 08:56:23;;;;;;;7.33;3.60;;;;;;;;;;5080527;28;20465;-82
2022/11/23 08:58:50;;;;;;;8.50;4.10;;;;;;;;;;5075785;28;20478;-80
2022/11/23 09:01:17;;;;;;;11.93;5.57;;;;;;;;;;5076346;28;20481;-82
2022/11/23 09:03:44;;;;;;;6.33;3.50;;;;;;;;;;5084361;28;20455;-80
2022/11/23 09:06:11;;;;;;;13.60;4.83;;;;;;;;;;5079318;28;20477;-82
2022/11/23 09:08:37;;;;;;;7.40;4.83;;;;;;;;;;5081054;28;20856;-83
2022/11/23 09:11:05;;;;;;;9.53;4.10;;;;;;;;;;5082724;28;20471;-82
2022/11/23 09:13:31;;;;;;;7.13;4.13;;;;;;;;;;5080623;28;20459;-82
2022/11/23 09:15:59;;;;;;;9.60;4.20;;;;;;;;;;5068686;28;20478;-82
2022/11/23 09:18:25;;;;;;;12.23;4.43;;;;;;;;;;5082724;28;20840;-81
2022/11/23 09:20:52;;;;;;;12.37;4.93;;;;;;;;;;5080213;28;20844;-82
2022/11/23 09:23:18;;;;;;;9.07;4.70;;;;;;;;;;5079789;28;20466;-82
2022/11/23 09:25:47;;;;;;;6.90;4.10;;;;;;;;;;5075539;28;20474;-80
2022/11/23 09:28:13;;;;;;;8.73;5.00;;;;;;;;;;5077284;28;20474;-82
2022/11/23 09:30:40;;;;;;;10.87;5.90;;;;;;;;;;5075720;28;21038;-81
2022/11/23 09:33:08;;;;;;;9.13;5.03;;;;;;;;;;5079484;28;20460;-82
2022/11/23 09:35:34;;;;;;;8.10;4.70;;;;;;;;;;5079696;28;20502;-80
2022/11/23 09:38:01;;;;;;;5.20;4.50;;;;;;;;;;5082571;28;20483;-80
2022/11/23 09:40:30;;;;;;;7.60;4.80;;;;;;;;;;5082567;28;20474;-80
2022/11/23 09:43:04;;;;;;;9.10;5.80;;;;;;;;;;5083063;28;20450;-80
2022/11/23 09:45:34;;;;;;;11.60;5.23;;;;;;;;;;5083499;28;20463;-80
2022/11/23 09:48:18;;;;;;;8.83;4.30;;;;;;;;;;5081581;28;20475;-83
2022/11/23 09:50:48;;;;;;;10.00;4.47;;;;;;;;;;5085836;28;20511;-82
2022/11/23 09:53:16;;;;;;;8.70;3.93;;;;;;;;;;5081540;28;20464;-82
2022/11/23 09:55:43;;;;;;;5.43;3.70;;;;;;;;;;5081962;28;20573;-83
2022/11/23 09:58:12;;;;;;;5.10;4.50;;;;;;;;;;5084630;28;21041;-82
2022/11/23 10:00:44;;;;;;;7.03;4.77;;;;;;;;;;5082304;28;20849;-82
2022/11/23 10:03:14;;;;;;;6.77;4.90;;;;;;;;;;5084582;28;20956;-82
2022/11/23 10:05:43;;;;;;;5.53;4.93;;;;;;;;;;5082940;28;20485;-84
2022/11/23 10:08:17;;;;;;;5.43;4.77;;;;;;;;;;5080092;28;20955;-81
2022/11/23 10:10:45;;;;;;;7.00;4.23;;;;;;;;;;5085236;28;20469;-82
2022/11/23 10:13:20;;;;;;;9.90;4.60;;;;;;;;;;5082551;28;20456;-82
2022/11/23 10:15:53;;;;;;;11.13;4.30;;;;;;;;;;5084472;28;20474;-82
2022/11/23 10:18:26;;;;;;;4.70;3.80;;;;;;;;;;5079859;28;20493;-81
2022/11/23 10:20:56;;;;;;;9.23;5.20;;;;;;;;;;5079207;28;20478;-83
2022/11/23 10:23:33;;;;;;;15.43;6.20;;;;;;;;;;5082056;28;20456;-82
2022/11/23 10:26:01;;;;;;;10.53;5.30;;;;;;;;;;5088108;28;20561;-83
2022/11/23 10:28:29;;;;;;;8.93;6.43;;;;;;;;;;5081623;28;20510;-81
2022/11/23 10:30:56;;;;;;;9.10;4.80;;;;;;;;;;5083085;28;20850;-82
2022/11/23 10:33:26;;;;;;;8.37;5.63;;;;;;;;;;5085808;28;20458;-82
2022/11/23 10:35:53;;;;;;;7.23;5.10;;;;;;;;;;5076642;28;20481;-81
2022/11/23 10:38:20;;;;;;;7.03;4.50;;;;;;;;;;5081631;28;20489;-82
2022/11/23 10:41:03;;;;;;;14.33;5.30;;;;;;;;;;5080942;28;20466;-82
2022/11/23 10:43:32;;;;;;;7.30;4.60;;;;;;;;;;5083212;28;20461;-82
2022/11/23 10:46:14;;;;;;;8.70;4.80;;;;;;;;;;5078672;28;20463;-82
2022/11/23 10:48:40;;;;;;;8.30;4.17;;;;;;;;;;5082063;28;20478;-81
2022/11/23 10:51:17;;;;;;;8.80;3.93;;;;;;;;;;5061861;28;20473;-82
2022/11/23 10:53:44;;;;;;;11.40;4.27;;;;;;;;;;5080889;28;20454;-82
2022/11/23 10:56:13;;;;;;;7.03;4.27;;;;;;;;;;5079787;28;21015;-82
2022/11/23 10:58:45;;;;;;;6.77;6.10;;;;;;;;;;5061356;28;20483;-82
2022/11/23 11:01:13;;;;;;;9.97;5.40;;;;;;;;;;5081619;28;20632;-82
2022/11/23 11:03:40;;;;;;;9.57;4.20;;;;;;;;;;5081058;28;20529;-82
2022/11/23 11:06:07;;;;;;;11.93;4.43;;;;;;;;;;5082715;28;20483;-82
2022/11/23 11:08:34;;;;;;;8.80;3.70;;;;;;;;;;5085737;28;20458;-81
2022/11/23 11:11:02;;;;;;;5.73;3.67;;;;;;;;;;5076067;28;20850;-81
2022/11/23 11:13:31;;;;;;;6.87;5.10;;;;;;;;;;5082568;28;20455;-81
2022/11/23 11:15:59;;;;;;;7.53;4.23;;;;;;;;;;5083741;28;20477;-81
2022/11/23 11:18:27;;;;;;;4.13;3.53;;;;;;;;;;5084935;28;20868;-81
2022/11/23 11:20:56;;;;;;;5.77;3.97;;;;;;;;;;5082534;28;20548;-81
2022/11/23 11:23:23;;;;;;;5.00;4.07;;;;;;;;;;5086157;28;20451;-82
2022/11/23 11:25:51;;;;;;;6.97;4.40;;;;;;;;;;5078451;28;20471;-80
2022/11/23 11:28:23;;;;;;;9.13;4.77;;;;;;;;;;5082581;28;20473;-81
2022/11/23 11:30:54;;;;;;;6.03;5.17;;;;;;;;;;5078820;28;20466;-82
2022/11/23 11:33:23;;;;;;;12.47;5.27;;;;;;;;;;5084667;28;20463;-82
2022/11/23 11:35:51;;;;;;;6.90;4.93;;;;;;;;;;5079621;28;20489;-82
2022/11/23 11:38:19;;;;;;;9.60;4.47;;;;;;;;;;5077596;28;21423;-82
2022/11/23 11:40:46;;;;;;;7.00;4.50;;;;;;;;;;5086405;28;20462;-82
2022/11/23 11:43:16;;;;;;;7.60;4.50;;;;;;;;;;5077473;28;20450;-81
2022/11/23 11:45:44;;;;;;;8.33;5.53;;;;;;;;;;5076629;28;20472;-82
2022/11/23 11:48:13;;;;;;;10.20;4.80;;;;;;;;;;5077326;28;20475;-82
2022/11/23 11:50:45;;;;;;;7.43;4.50;;;;;;;;;;5081746;28;20995;-82
2022/11/23 11:53:13;;;;;;;10.17;4.87;;;;;;;;;;5076339;28;20458;-82
2022/11/23 11:55:48;;;;;;;12.20;5.00;;;;;;;;;;5082522;28;20473;-81
2022/11/23 11:58:16;;;;;;;17.70;5.40;;;;;;;;;;5079572;28;20491;-82
2022/11/23 12:00:43;;;;;;;9.00;5.37;;;;;;;;;;5074727;28;20486;-81
2022/11/23 12:03:14;;;;;;;10.30;4.93;;;;;;;;;;5086144;28;20435;-81
2022/11/23 12:05:44;;;;;;;5.30;4.80;;;;;;;;;;5076160;28;20465;-81
2022/11/23 12:08:14;;;;;;;9.37;5.47;;;;;;;;;;5082769;28;20476;-80
2022/11/23 12:10:44;;;;;;;11.77;6.00;;;;;;;;;;5080756;28;20469;-81
2022/11/23 12:13:13;;;;;;;5.30;4.20;;;;;;;;;;5076776;28;20458;-81
2022/11/23 12:15:45;;;;;;;6.07;4.27;;;;;;;;;;5075375;28;20478;-81
2022/11/23 12:18:19;;;;;;;6.20;5.53;;;;;;;;;;5079202;28;20479;-80
2022/11/23 12:20:50;;;;;;;10.17;5.00;;;;;;;;;;5082051;28;20474;-81
2022/11/23 12:23:22;;;;;;;5.30;4.37;;;;;;;;;;5083516;28;20438;-80
2022/11/23 12:25:51;;;;;;;5.87;4.50;;;;;;;;;;5079147;28;20475;-81
2022/11/23 12:28:26;;;;;;;11.73;5.37;;;;;;;;;;5079851;28;20475;-81
2022/11/23 12:30:59;;;;;;;7.63;4.90;;;;;;;;;;5080767;28;20474;-81
2022/11/23 12:33:44;;;;;;;8.93;5.20;;;;;;;;;;5082511;28;20460;-81
2022/11/23 12:36:25;;;;;;;11.57;5.20;;;;;;;;;;5082513;28;20478;-81
2022/11/23 12:38:54;;;;;;;7.73;5.63;;;;;;;;;;5084717;28;20858;-81
2022/11/23 12:41:23;;;;;;;6.07;4.43;;;;;;;;;;5077971;28;20466;-80
2022/11/23 12:43:55;;;;;;;11.63;4.77;;;;;;;;;;5080861;28;20461;-80
2022/11/23 12:46:25;;;;;;;9.13;5.20;;;;;;;;;;5080808;28;20492;-81
2022/11/23 12:48:56;;;;;;;6.40;3.93;;;;;;;;;;5081231;28;20995;-80
2022/11/23 12:51:32;;;;;;;17.40;5.20;;;;;;;;;;5082596;28;21054;-80
2022/11/23 12:54:06;;;;;;;6.60;4.40;;;;;;;;;;5078310;28;20462;-81
2022/11/23 12:56:45;;;;;;;10.07;4.27;;;;;;;;;;5086502;28;20470;-81
2022/11/23 12:59:13;;;;;;;10.10;3.70;;;;;;;;;;5084037;28;20461;-81
2022/11/23 13:01:40;;;;;;;8.43;4.37;;;;;;;;;;5083168;28;20477;-81
2022/11/23 13:04:34;;;;;;;9.70;3.13;;;;;;;;;;5085080;28;20457;-81
2022/11/23 13:07:09;;;;;;;10.03;4.30;;;;;;;;;;5081414;28;20458;-81
2022/11/23 13:09:41;;;;;;;8.20;3.70;;;;;;;;;;5091286;28;20940;-81
2022/11/23 13:12:15;;;;;;;9.90;4.50;;;;;;;;;;5081422;28;21006;-81
2022/11/23 13:14:46;;;;;;;9.13;4.10;;;;;;;;;;5085000;28;20439;-81
2022/11/23 13:17:17;;;;;;;7.27;4.23;;;;;;;;;;5081397;28;20474;-81
2022/11/23 13:20:02;;;;;;;15.03;4.73;;;;;;;;;;5077853;28;20906;-81
2022/11/23 13:22:31;;;;;;;17.50;3.60;;;;;;;;;;5081300;28;20466;-80
2022/11/23 13:25:02;;;;;;;5.90;3.20;;;;;;;;;;5076179;28;20851;-81
2022/11/23 13:27:29;;;;;;;5.37;2.37;;;;;;;;;;5078817;28;20481;-81
2022/11/23 13:29:57;;;;;;;6.77;1.97;;;;;;;;;;5084091;28;20473;-80
2022/11/23 13:32:46;;;;;;;3.90;2.40;;;;;;;;;;5063517;28;20478;-81
2022/11/23 13:35:32;;;;;;;6.80;2.77;;;;;;;;;;5084934;28;20445;-81
2022/11/23 13:38:16;;;;;;;4.93;2.30;;;;;;;;;;5081058;28;20492;-81
2022/11/23 13:40:45;;;;;;;3.87;2.67;;;;;;;;;;5077693;28;20488;-81
2022/11/23 13:43:14;;;;;;;8.50;2.57;;;;;;;;;;5083621;28;20450;-81
2022/11/23 13:45:41;;;;;;;4.80;2.60;;;;;;;;;;5084739;28;20466;-82
2022/11/23 13:48:18;;;;;;;7.17;2.20;;;;;;;;;;5081380;28;20479;-81
2022/11/23 13:50:59;;;;;;;8.20;2.70;;;;;;;;;;5081095;28;20458;-81
2022/11/23 13:53:30;;;;;;;7.10;2.67;;;;;;;;;;5080896;28;20518;-81
2022/11/23 13:56:00;;;;;;;3.83;2.37;;;;;;;;;;5062355;28;20503;-81
2022/11/23 13:58:39;;;;;;;4.23;1.90;;;;;;;;;;5083650;28;20486;-82
2022/11/23 14:01:06;;;;;;;7.40;1.60;;;;;;;;;;5078156;28;20475;-81
2022/11/23 14:03:48;;;;;;;5.50;2.30;;;;;;;;;;5085529;28;20441;-80
2022/11/23 14:06:19;;;;;;;5.87;2.33;;;;;;;;;;5079678;28;20477;-82
2022/11/23 14:08:46;;;;;;;11.40;2.83;;;;;;;;;;5080097;28;20458;-82
2022/11/23 14:11:19;;;;;;;9.83;3.20;;;;;;;;;;5077281;28;20487;-82
2022/11/23 14:13:48;;;;;;;3.20;2.17;;;;;;;;;;5079642;28;20462;-80
2022/11/23 14:16:23;;;;;;;7.80;2.93;;;;;;;;;;5081093;28;20469;-82
2022/11/23 14:18:56;;;;;;;3.83;2.27;;;;;;;;;;5082920;28;20481;-81
2022/11/23 14:21:25;;;;;;;4.67;2.00;;;;;;;;;;5080378;28;20473;-80
2022/11/23 14:24:13;;;;;;;7.20;2.27;;;;;;;;;;5082450;28;20898;-81
2022/11/23 14:26:46;;;;;;;4.10;2.43;;;;;;;;;;5075319;28;20483;-81
2022/11/23 14:29:21;;;;;;;7.03;2.23;;;;;;;;;;5087369;28;20438;-81
2022/11/23 14:31:56;;;;;;;2.63;1.83;;;;;;;;;;5082896;28;20470;-79
2022/11/23 14:34:25;;;;;;;7.33;2.03;;;;;;;;;;5081201;28;20550;-81
2022/11/23 14:36:55;;;;;;;5.17;3.07;;;;;;;;;;5082247;28;20482;-82
2022/11/23 14:39:37;;;;;;;7.73;2.50;;;;;;;;;;5086838;28;20477;-81
2022/11/23 14:42:10;;;;;;;6.33;2.80;;;;;;;;;;5080940;28;20462;-79
2022/11/23 14:44:39;;;;;;;5.03;2.40;;;;;;;;;;5079798;28;20458;-79
2022/11/23 14:47:06;;;;;;;8.83;2.60;;;;;;;;;;5081811;28;20475;-80